Time,TemperatureF,DewpointF,PressureIn,WindDirection,WindDirectionDegrees,WindSpeedMPH,WindSpeedGustMPH,Humidity,HourlyPrecipIn,Conditions,Clouds,dailyrainin,SoftwareType,DateUTC
2013-10-04 00:46:00,66.4,64.0,29.94,NW,316,0.0,0.0,93,0.00,,,0.00,weatherlink.com 1.10,2013-10-04 04:46:00,
2013-10-04 01:01:00,67.0,65.0,29.93,NW,316,0.0,1.0,93,0.00,,,0.00,weatherlink.com 1.10,2013-10-04 05:01:00,
2013-10-04 01:16:00,67.4,65.0,29.94,SSW,202,0.0,3.0,92,0.00,,,0.00,weatherlink.com 1.10,2013-10-04 05:16:00,
2013-10-04 01:31:00,67.6,65.0,29.94,ENE,78,0.0,2.0,92,0.00,,,0.00,weatherlink.com 1.10,2013-10-04 05:31:00,
2013-10-04 01:46:00,67.7,65.0,29.93,SSW,194,0.0,1.0,92,0.00,,,0.00,weatherlink.com 1.10,2013-10-04 05:46:00,
2013-10-04 02:01:00,67.9,66.0,29.93,SSW,198,0.0,1.0,92,0.00,,,0.00,weatherlink.com 1.10,2013-10-04 06:01:00,
2013-10-04 02:16:00,68.0,66.0,29.93,SSW,197,0.0,1.0,92,0.00,,,0.00,weatherlink.com 1.10,2013-10-04 06:16:00,
2013-10-04 02:31:00,68.1,66.0,29.94,SSW,197,0.0,1.0,92,0.00,,,0.00,weatherlink.com 1.10,2013-10-04 06:31:00,
2013-10-04 02:46:00,68.1,66.0,29.95,SW,230,0.0,1.0,92,0.00,,,0.00,weatherlink.com 1.10,2013-10-04 06:46:00,
2013-10-04 03:01:00,68.1,66.0,29.95,West,261,0.0,1.0,92,0.00,,,0.00,weatherlink.com 1.10,2013-10-04 07:01:00,
2013-10-04 03:16:00,68.1,66.0,29.96,SSW,212,0.0,1.0,93,0.00,,,0.00,weatherlink.com 1.10,2013-10-04 07:16:00,
2013-10-04 03:31:00,68.1,66.0,29.95,SE,128,0.0,2.0,93,0.00,,,0.00,weatherlink.com 1.10,2013-10-04 07:31:00,
2013-10-04 03:46:00,68.0,66.0,29.95,SSW,205,0.0,2.0,93,0.00,,,0.00,weatherlink.com 1.10,2013-10-04 07:46:00,
2013-10-04 04:01:00,68.0,66.0,29.95,SSW,205,0.0,0.0,93,0.00,,,0.00,weatherlink.com 1.10,2013-10-04 08:01:00,
2013-10-04 04:16:00,67.9,66.0,29.95,SSW,204,0.0,1.0,93,0.00,,,0.00,weatherlink.com 1.10,2013-10-04 08:16:00,
2013-10-04 04:31:00,67.7,66.0,29.96,SSW,204,0.0,0.0,93,0.00,,,0.00,weatherlink.com 1.10,2013-10-04 08:31:00,
2013-10-04 04:46:00,67.6,66.0,29.95,SSW,204,0.0,0.0,93,0.00,,,0.00,weatherlink.com 1.10,2013-10-04 08:46:00,
2013-10-04 05:01:00,67.4,66.0,29.96,SSW,204,0.0,0.0,94,0.00,,,0.00,weatherlink.com 1.10,2013-10-04 09:01:00,
2013-10-04 05:16:00,67.1,65.0,29.96,SSW,204,0.0,0.0,94,0.00,,,0.00,weatherlink.com 1.10,2013-10-04 09:16:00,
2013-10-04 05:31:00,67.0,65.0,29.96,SSW,204,0.0,0.0,94,0.00,,,0.00,weatherlink.com 1.10,2013-10-04 09:31:00,
2013-10-04 05:46:00,66.9,65.0,29.97,SSW,204,0.0,0.0,94,0.00,,,0.00,weatherlink.com 1.10,2013-10-04 09:46:00,
2013-10-04 06:01:00,66.8,65.0,29.97,SSW,204,0.0,0.0,94,0.00,,,0.00,weatherlink.com 1.10,2013-10-04 10:01:00,
2013-10-04 06:16:00,66.8,65.0,29.97,SSW,204,0.0,0.0,94,0.00,,,0.00,weatherlink.com 1.10,2013-10-04 10:16:00,
2013-10-04 06:31:00,66.7,65.0,29.97,SSW,204,0.0,0.0,94,0.00,,,0.00,weatherlink.com 1.10,2013-10-04 10:31:00,
2013-10-04 06:46:00,66.6,65.0,29.97,SSE,162,0.0,1.0,94,0.00,,,0.00,weatherlink.com 1.10,2013-10-04 10:46:00,
2013-10-04 07:01:00,66.5,65.0,29.98,SSE,162,0.0,0.0,95,0.00,,,0.00,weatherlink.com 1.10,2013-10-04 11:01:00,
2013-10-04 07:16:00,66.3,65.0,29.98,SSE,162,0.0,0.0,95,0.00,,,0.00,weatherlink.com 1.10,2013-10-04 11:16:00,
2013-10-04 07:31:00,66.1,65.0,29.98,SSE,162,0.0,0.0,95,0.00,,,0.00,weatherlink.com 1.10,2013-10-04 11:31:00,
2013-10-04 07:46:00,66.0,65.0,29.99,SSE,162,0.0,0.0,95,0.00,,,0.00,weatherlink.com 1.10,2013-10-04 11:46:00,
2013-10-04 08:01:00,65.9,65.0,29.99,SSE,162,0.0,0.0,96,0.00,,,0.00,weatherlink.com 1.10,2013-10-04 12:01:00,
2013-10-04 08:16:00,66.0,65.0,29.98,SSE,162,0.0,0.0,96,0.00,,,0.00,weatherlink.com 1.10,2013-10-04 12:16:00,
2013-10-04 08:31:00,66.1,65.0,29.99,SSE,162,0.0,0.0,96,0.00,,,0.00,weatherlink.com 1.10,2013-10-04 12:31:00,
2013-10-04 08:46:00,66.3,65.0,29.98,SSE,152,0.0,0.0,96,0.00,,,0.00,weatherlink.com 1.10,2013-10-04 12:46:00,
2013-10-04 09:03:00,66.5,65.0,29.99,SSE,152,0.0,0.0,96,0.00,,,0.00,weatherlink.com 1.10,2013-10-04 13:03:00,
2013-10-04 09:17:00,66.9,66.0,29.99,SSW,213,0.0,3.0,96,0.00,,,0.00,weatherlink.com 1.10,2013-10-04 13:17:00,
2013-10-04 09:32:00,67.7,66.0,29.99,ESE,123,0.0,3.0,95,0.00,,,0.00,weatherlink.com 1.10,2013-10-04 13:32:00,
2013-10-04 09:47:00,68.3,66.0,29.99,South,186,0.0,0.0,93,0.00,,,0.00,weatherlink.com 1.10,2013-10-04 13:47:00,
2013-10-04 10:02:00,68.8,67.0,29.99,South,188,0.0,2.0,93,0.00,,,0.00,weatherlink.com 1.10,2013-10-04 14:02:00,
2013-10-04 10:17:00,69.8,67.0,30.00,SSE,167,0.0,2.0,91,0.00,,,0.00,weatherlink.com 1.10,2013-10-04 14:17:00,
2013-10-04 10:32:00,70.6,68.0,29.99,West,259,0.0,5.0,90,0.00,,,0.00,weatherlink.com 1.10,2013-10-04 14:32:00,
2013-10-04 10:47:00,71.3,68.0,29.99,West,267,0.0,5.0,90,0.00,,,0.00,weatherlink.com 1.10,2013-10-04 14:47:00,
2013-10-04 11:02:00,72.4,68.0,29.99,WSW,245,1.0,4.0,87,0.00,,,0.00,weatherlink.com 1.10,2013-10-04 15:02:00,
2013-10-04 11:17:00,73.4,70.0,29.99,NNW,345,1.0,2.0,88,0.00,,,0.00,weatherlink.com 1.10,2013-10-04 15:17:00,
2013-10-04 11:32:00,74.7,70.0,29.98,SW,225,1.0,3.0,86,0.00,,,0.00,weatherlink.com 1.10,2013-10-04 15:32:00,
2013-10-04 11:47:00,76.4,70.0,29.99,West,281,1.0,6.0,81,0.00,,,0.00,weatherlink.com 1.10,2013-10-04 15:47:00,
2013-10-04 12:02:00,77.5,71.0,29.99,WSW,255,0.0,5.0,81,0.00,,,0.00,weatherlink.com 1.10,2013-10-04 16:02:00,
2013-10-04 12:17:00,79.0,71.0,29.99,South,188,1.0,4.0,77,0.00,,,0.00,weatherlink.com 1.10,2013-10-04 16:17:00,
2013-10-04 12:32:00,79.4,71.0,29.98,West,259,0.0,4.0,75,0.00,,,0.00,weatherlink.com 1.10,2013-10-04 16:32:00,
2013-10-04 12:47:00,80.7,72.0,29.99,NNW,336,2.0,4.0,75,0.00,,,0.00,weatherlink.com 1.10,2013-10-04 16:47:00,
2013-10-04 13:02:00,80.4,72.0,29.98,West,269,0.0,4.0,75,0.00,,,0.00,weatherlink.com 1.10,2013-10-04 17:02:00,
2013-10-04 13:17:00,79.7,73.0,29.98,NW,312,0.0,4.0,80,0.00,,,0.00,weatherlink.com 1.10,2013-10-04 17:17:00,
2013-10-04 13:32:00,80.7,72.0,29.97,ESE,113,0.0,3.0,74,0.00,,,0.00,weatherlink.com 1.10,2013-10-04 17:32:00,
2013-10-04 14:02:00,78.2,72.0,29.97,NNW,332,1.0,6.0,80,0.00,,,0.00,weatherlink.com 1.10,2013-10-04 18:02:00,
2013-10-04 14:17:00,78.0,72.0,29.96,North,11,0.0,4.0,82,0.00,,,0.00,weatherlink.com 1.10,2013-10-04 18:17:00,
2013-10-04 14:32:00,77.4,72.0,29.98,West,281,6.0,10.0,82,0.00,,,0.00,weatherlink.com 1.10,2013-10-04 18:32:00,
2013-10-04 14:47:00,70.5,66.0,29.97,WNW,296,0.0,14.0,85,0.14,,,0.14,weatherlink.com 1.10,2013-10-04 18:47:00,
2013-10-04 15:17:00,70.0,69.0,29.96,NNW,347,1.0,7.0,95,0.22,,,0.22,weatherlink.com 1.10,2013-10-04 19:17:00,
2013-10-04 15:32:00,71.0,70.0,29.96,West,272,3.0,4.0,95,0.22,,,0.22,weatherlink.com 1.10,2013-10-04 19:32:00,
2013-10-04 15:47:00,71.7,70.0,29.96,NW,312,2.0,10.0,94,0.08,,,0.22,weatherlink.com 1.10,2013-10-04 19:47:00,
2013-10-04 16:17:00,69.7,68.0,29.95,East,97,1.0,3.0,95,0.18,,,0.40,weatherlink.com 1.10,2013-10-04 20:17:00,
2013-10-04 16:32:00,72.4,72.0,29.94,ESE,105,0.0,0.0,98,0.18,,,0.40,weatherlink.com 1.10,2013-10-04 20:32:00,
2013-10-04 16:47:00,73.7,72.0,29.95,ESE,123,0.0,5.0,95,0.18,,,0.40,weatherlink.com 1.10,2013-10-04 20:47:00,
2013-10-04 17:02:00,73.9,72.0,29.95,ESE,123,0.0,0.0,92,0.09,,,0.40,weatherlink.com 1.10,2013-10-04 21:02:00,
2013-10-04 17:17:00,74.0,72.0,29.95,ESE,123,0.0,0.0,92,0.00,,,0.40,weatherlink.com 1.10,2013-10-04 21:17:00,
2013-10-04 17:32:00,73.9,72.0,29.95,ESE,123,0.0,0.0,92,0.00,,,0.40,weatherlink.com 1.10,2013-10-04 21:32:00,
2013-10-04 17:47:00,73.7,71.0,29.95,ESE,123,0.0,0.0,92,0.00,,,0.40,weatherlink.com 1.10,2013-10-04 21:47:00,
2013-10-04 18:02:00,73.4,71.0,29.95,ESE,123,0.0,0.0,93,0.00,,,0.40,weatherlink.com 1.10,2013-10-04 22:02:00,
2013-10-04 18:17:00,72.8,71.0,29.95,ESE,123,0.0,0.0,93,0.00,,,0.40,weatherlink.com 1.10,2013-10-04 22:17:00,
2013-10-04 18:32:00,72.2,70.0,29.95,South,169,0.0,0.0,94,0.00,,,0.40,weatherlink.com 1.10,2013-10-04 22:32:00,
2013-10-04 18:47:00,71.7,70.0,29.96,South,169,0.0,1.0,94,0.00,,,0.40,weatherlink.com 1.10,2013-10-04 22:47:00,
2013-10-04 19:02:00,71.2,69.0,29.96,East,90,0.0,4.0,94,0.00,,,0.40,weatherlink.com 1.10,2013-10-04 23:02:00,
2013-10-04 19:17:00,70.8,69.0,29.96,SE,134,0.0,0.0,94,0.00,,,0.40,weatherlink.com 1.10,2013-10-04 23:17:00,
2013-10-04 19:32:00,70.5,69.0,29.96,SE,134,0.0,0.0,95,0.00,,,0.40,weatherlink.com 1.10,2013-10-04 23:32:00,
2013-10-04 19:47:00,70.3,69.0,29.96,SE,134,0.0,1.0,96,0.00,,,0.40,weatherlink.com 1.10,2013-10-04 23:47:00,
2013-10-04 20:02:00,70.0,69.0,29.96,SE,138,0.0,2.0,95,0.00,,,0.40,weatherlink.com 1.10,2013-10-05 00:02:00,
2013-10-04 20:17:00,69.6,68.0,29.96,SE,139,0.0,1.0,95,0.00,,,0.40,weatherlink.com 1.10,2013-10-05 00:17:00,
2013-10-04 20:32:00,69.1,68.0,29.97,South,175,0.0,2.0,95,0.00,,,0.40,weatherlink.com 1.10,2013-10-05 00:32:00,
2013-10-04 20:48:00,68.8,67.0,29.97,South,173,0.0,0.0,95,0.00,,,0.40,weatherlink.com 1.10,2013-10-05 00:48:00,
2013-10-04 21:03:00,68.5,67.0,29.98,SE,146,0.0,3.0,96,0.00,,,0.40,weatherlink.com 1.10,2013-10-05 01:03:00,
2013-10-04 21:18:00,68.4,67.0,29.98,SE,130,1.0,2.0,96,0.00,,,0.40,weatherlink.com 1.10,2013-10-05 01:18:00,
2013-10-04 21:33:00,68.5,67.0,29.98,SE,138,1.0,2.0,96,0.00,,,0.40,weatherlink.com 1.10,2013-10-05 01:33:00,
2013-10-04 21:48:00,68.4,67.0,29.98,SSE,147,0.0,2.0,96,0.00,,,0.40,weatherlink.com 1.10,2013-10-05 01:48:00,
2013-10-04 22:03:00,68.1,67.0,29.99,SSE,149,0.0,2.0,96,0.00,,,0.40,weatherlink.com 1.10,2013-10-05 02:03:00,
2013-10-04 22:18:00,67.9,67.0,29.99,ENE,73,0.0,3.0,97,0.00,,,0.40,weatherlink.com 1.10,2013-10-05 02:18:00,
2013-10-04 22:33:00,67.9,67.0,30.00,ENE,68,0.0,1.0,97,0.00,,,0.40,weatherlink.com 1.10,2013-10-05 02:33:00,
2013-10-04 22:48:00,68.0,67.0,30.00,ENE,68,0.0,1.0,97,0.00,,,0.40,weatherlink.com 1.10,2013-10-05 02:48:00,
2013-10-04 23:03:00,67.7,67.0,30.00,SSE,157,0.0,1.0,97,0.00,,,0.40,weatherlink.com 1.10,2013-10-05 03:03:00,
2013-10-04 23:18:00,67.5,67.0,30.00,SSE,159,0.0,1.0,97,0.00,,,0.40,weatherlink.com 1.10,2013-10-05 03:18:00,
2013-10-04 23:33:00,67.5,67.0,30.00,ENE,63,0.0,1.0,97,0.00,,,0.40,weatherlink.com 1.10,2013-10-05 03:33:00,
2013-10-04 23:48:00,67.2,66.0,30.00,ENE,63,0.0,0.0,97,0.00,,,0.40,weatherlink.com 1.10,2013-10-05 03:48:00,